Time;durP1;ratioP1;P1;durP2;ratioP2;P2;SDS_P1;SDS_P2;PMS_P1;PMS_P2;Temp;Humidity;BMP_temperature;BMP_pressure;BME280_temperature;BME280_humidity;BME280_pressure;Samples;Min_cycle;Max_cycle;Signal;HPM_P1;HPM_P2
2022/03/18 00:02:04;;;;;;;12.63;6.55;;;4.10;99.90;;;;;;5105715;27;20043;-69
2022/03/18 00:04:30;;;;;;;13.45;5.85;;;4.10;99.90;;;;;;5102359;28;20039;-67
2022/03/18 00:06:56;;;;;;;13.00;5.55;;;4.10;99.90;;;;;;5072015;28;20040;-67
2022/03/18 00:09:21;;;;;;;13.85;5.88;;;4.00;99.90;;;;;;5097219;28;20081;-67
2022/03/18 00:11:48;;;;;;;15.48;6.00;;;4.00;99.90;;;;;;5103903;27;20044;-67
2022/03/18 00:14:14;;;;;;;13.55;5.82;;;4.00;99.90;;;;;;5087824;28;20038;-68
2022/03/18 00:16:40;;;;;;;13.77;5.88;;;4.00;99.90;;;;;;5101118;28;20135;-67
2022/03/18 00:19:06;;;;;;;10.82;5.70;;;3.90;99.90;;;;;;5103204;28;20040;-67
2022/03/18 00:21:31;;;;;;;12.27;5.00;;;3.90;99.90;;;;;;5100338;28;20039;-68
2022/03/18 00:23:58;;;;;;;12.90;5.75;;;3.90;99.90;;;;;;5097842;28;20076;-67
2022/03/18 00:26:23;;;;;;;10.57;5.80;;;3.90;99.90;;;;;;5103642;27;20051;-68
2022/03/18 00:28:49;;;;;;;9.82;5.00;;;3.90;99.90;;;;;;5100280;27;20043;-67
2022/03/18 00:31:15;;;;;;;13.77;5.22;;;3.90;99.90;;;;;;5104324;28;20059;-67
2022/03/18 00:33:40;;;;;;;9.27;5.03;;;3.90;99.90;;;;;;5101175;28;20055;-68
2022/03/18 00:36:06;;;;;;;10.50;5.40;;;3.90;99.90;;;;;;5100579;28;20350;-68
2022/03/18 00:38:32;;;;;;;10.82;5.10;;;3.80;99.90;;;;;;5096842;27;20051;-67
2022/03/18 00:40:58;;;;;;;10.18;5.47;;;3.80;99.90;;;;;;5084987;28;20131;-67
2022/03/18 00:43:23;;;;;;;10.82;5.60;;;3.80;99.90;;;;;;5100810;28;20119;-67
2022/03/18 00:45:49;;;;;;;10.73;5.05;;;3.80;99.90;;;;;;5103701;27;20062;-67
2022/03/18 00:53:43;;;;;;;13.02;5.32;;;3.70;99.90;;;;;;5101936;27;20150;-67
2022/03/18 00:56:09;;;;;;;14.25;5.45;;;3.70;99.90;;;;;;5094227;28;20114;-68
2022/03/18 00:58:34;;;;;;;13.30;5.22;;;3.60;99.90;;;;;;5102646;28;20147;-67
2022/03/18 01:01:00;;;;;;;10.68;5.22;;;3.60;99.90;;;;;;5097965;28;20066;-69
2022/03/18 01:03:26;;;;;;;10.38;4.90;;;3.60;99.90;;;;;;5095731;27;20036;-67
2022/03/18 01:05:51;;;;;;;9.35;5.13;;;3.60;99.90;;;;;;5094900;27;20071;-68
2022/03/18 01:08:17;;;;;;;10.77;4.85;;;3.60;99.90;;;;;;5099262;27;20043;-68
2022/03/18 01:10:44;;;;;;;9.02;4.35;;;3.50;99.90;;;;;;5100371;28;20097;-68
2022/03/18 01:13:09;;;;;;;11.93;5.35;;;3.50;99.90;;;;;;5095652;28;20043;-67
2022/03/18 01:15:35;;;;;;;13.68;5.72;;;3.50;99.90;;;;;;5099880;28;20048;-67
2022/03/18 01:18:01;;;;;;;11.75;5.32;;;3.50;99.90;;;;;;5097294;28;20048;-68
2022/03/18 01:20:27;;;;;;;13.23;6.03;;;3.50;99.90;;;;;;5101161;28;20108;-67
2022/03/18 01:22:52;;;;;;;14.82;5.72;;;3.40;99.90;;;;;;5100609;28;20036;-67
2022/03/18 01:25:18;;;;;;;13.95;5.75;;;3.50;99.90;;;;;;5098663;28;20035;-69
2022/03/18 01:27:44;;;;;;;11.00;5.53;;;3.40;99.90;;;;;;5096720;27;20079;-67
2022/03/18 01:30:10;;;;;;;13.32;5.57;;;3.40;99.90;;;;;;5091914;28;20422;-68
2022/03/18 01:32:35;;;;;;;10.40;4.82;;;3.40;99.90;;;;;;5094821;27;20393;-67
2022/03/18 01:35:01;;;;;;;10.68;5.00;;;3.40;99.90;;;;;;5094520;28;20097;-67
2022/03/18 01:37:27;;;;;;;13.77;5.75;;;3.40;99.90;;;;;;5097777;28;20040;-66
2022/03/18 01:39:52;;;;;;;12.23;5.30;;;3.30;99.90;;;;;;5102883;27;20066;-67
2022/03/18 01:42:18;;;;;;;11.25;5.50;;;3.30;99.90;;;;;;5088641;28;20778;-67
2022/03/18 01:44:47;;;;;;;10.00;5.07;;;3.40;99.90;;;;;;5105505;28;20051;-67
2022/03/18 01:47:13;;;;;;;12.80;5.30;;;3.40;99.90;;;;;;5091517;28;20407;-67
2022/03/18 01:49:39;;;;;;;10.48;5.25;;;3.30;99.90;;;;;;5092416;28;20063;-66
2022/03/18 01:52:07;;;;;;;10.75;4.90;;;3.40;99.90;;;;;;5100855;28;20035;-67
2022/03/18 01:54:45;;;;;;;10.10;5.20;;;3.30;99.90;;;;;;5105068;28;20421;-66
2022/03/18 01:57:13;;;;;;;9.55;5.05;;;3.30;99.90;;;;;;5078382;28;20047;-69
2022/03/18 01:59:39;;;;;;;10.65;4.97;;;3.30;99.90;;;;;;5098221;28;20047;-66
2022/03/18 02:02:05;;;;;;;12.00;5.05;;;3.30;99.90;;;;;;5093697;28;20036;-68
2022/03/18 02:04:32;;;;;;;9.55;4.75;;;3.20;99.90;;;;;;5093415;28;20046;-67
2022/03/18 02:06:59;;;;;;;9.13;4.50;;;3.20;99.90;;;;;;5096801;28;20039;-68
2022/03/18 02:09:25;;;;;;;10.65;5.28;;;3.20;99.90;;;;;;5103985;28;20043;-67
2022/03/18 02:11:51;;;;;;;9.52;5.30;;;3.10;99.90;;;;;;5098724;28;20155;-67
2022/03/18 02:14:30;;;;;;;15.48;5.35;;;3.10;99.90;;;;;;5089693;28;20093;-67
2022/03/18 02:16:55;;;;;;;11.63;5.25;;;3.10;99.90;;;;;;5104857;27;20043;-66
2022/03/18 02:19:21;;;;;;;13.55;5.40;;;3.10;99.90;;;;;;5100811;28;20116;-68
2022/03/18 02:21:52;;;;;;;9.77;5.15;;;3.10;99.90;;;;;;5106302;27;20047;-66
2022/03/18 02:24:18;;;;;;;11.63;5.07;;;3.10;99.90;;;;;;5110450;27;20055;-66
2022/03/18 02:26:50;;;;;;;12.27;5.50;;;3.10;99.90;;;;;;5099677;28;20047;-67
2022/03/18 02:29:18;;;;;;;10.27;5.22;;;3.00;99.90;;;;;;5082247;28;20055;-67
2022/03/18 02:31:44;;;;;;;11.77;5.10;;;3.00;99.90;;;;;;5096803;28;21672;-67
2022/03/18 02:34:10;;;;;;;13.75;6.22;;;3.00;99.90;;;;;;5094698;27;20044;-66
2022/03/18 02:36:35;;;;;;;11.55;5.13;;;3.00;99.90;;;;;;5096409;27;20119;-69
2022/03/18 02:39:01;;;;;;;11.55;5.63;;;3.00;99.90;;;;;;5103295;27;20139;-67
2022/03/18 02:41:27;;;;;;;12.63;5.20;;;3.00;99.90;;;;;;5101642;28;20346;-67
2022/03/18 02:43:52;;;;;;;9.98;5.55;;;3.00;99.90;;;;;;5100802;28;20044;-67
2022/03/18 02:46:18;;;;;;;10.50;5.78;;;2.90;99.90;;;;;;5082784;28;20415;-67
2022/03/18 02:48:43;;;;;;;9.10;5.38;;;2.90;99.90;;;;;;5106164;28;20073;-66
2022/03/18 02:51:09;;;;;;;13.13;5.53;;;2.90;99.90;;;;;;5096349;27;20152;-67
2022/03/18 02:53:36;;;;;;;13.18;5.97;;;2.90;99.90;;;;;;5096447;28;20355;-66
2022/03/18 02:56:04;;;;;;;11.05;4.68;;;2.80;99.90;;;;;;5098813;27;20051;-69
2022/03/18 02:58:29;;;;;;;12.13;5.40;;;2.90;99.90;;;;;;5072642;28;20046;-67
2022/03/18 03:00:55;;;;;;;11.63;5.50;;;2.90;99.90;;;;;;5109004;28;20638;-67
2022/03/18 03:03:20;;;;;;;12.70;5.30;;;2.90;99.90;;;;;;5107070;27;20055;-67
2022/03/18 03:08:31;;;;;;;11.95;5.22;;;2.80;99.90;;;;;;5107032;27;20485;-67
2022/03/18 03:10:58;;;;;;;10.45;5.18;;;2.90;99.90;;;;;;5101889;28;20520;-69
2022/03/18 03:13:24;;;;;;;10.68;5.50;;;2.80;99.90;;;;;;5104989;28;20036;-67
2022/03/18 03:15:50;;;;;;;11.48;5.35;;;2.80;99.90;;;;;;5106649;27;20044;-67
2022/03/18 03:18:16;;;;;;;11.20;5.40;;;2.80;99.90;;;;;;5103683;28;20058;-67
2022/03/18 03:20:41;;;;;;;9.10;5.15;;;2.80;99.90;;;;;;5098295;28;20143;-66
2022/03/18 03:23:07;;;;;;;14.05;5.72;;;2.80;99.90;;;;;;5099007;27;20119;-67
2022/03/18 03:25:33;;;;;;;11.77;6.05;;;2.70;99.90;;;;;;5106426;27;20054;-68
2022/03/18 03:27:59;;;;;;;12.80;5.30;;;2.70;99.90;;;;;;5072994;28;20151;-69
2022/03/18 03:30:25;;;;;;;11.35;6.13;;;2.70;99.90;;;;;;5101064;28;20139;-67
2022/03/18 03:32:51;;;;;;;11.27;5.30;;;2.70;99.90;;;;;;5062982;28;20039;-66
2022/03/18 03:35:17;;;;;;;9.55;5.38;;;2.60;99.90;;;;;;5106038;28;20032;-68
2022/03/18 03:37:43;;;;;;;13.02;5.30;;;2.60;99.90;;;;;;5102999;28;20040;-67
2022/03/18 03:40:13;;;;;;;11.52;5.10;;;2.60;99.90;;;;;;5098588;28;20123;-67
2022/03/18 03:42:40;;;;;;;9.57;5.50;;;2.60;99.90;;;;;;5102698;28;20119;-67
2022/03/18 03:45:06;;;;;;;11.30;5.47;;;2.60;99.90;;;;;;5097860;27;20044;-67
2022/03/18 03:47:32;;;;;;;12.90;5.95;;;2.60;99.90;;;;;;5096162;28;20081;-68
2022/03/18 03:49:57;;;;;;;13.07;5.60;;;2.60;99.90;;;;;;5105346;28;20075;-67
2022/03/18 03:52:23;;;;;;;15.57;6.45;;;2.60;99.90;;;;;;5107019;27;20702;-68
2022/03/18 03:54:48;;;;;;;13.05;5.68;;;2.60;99.90;;;;;;5080417;28;20052;-67
2022/03/18 03:57:14;;;;;;;15.35;6.30;;;2.60;99.90;;;;;;5101298;28;20485;-67
2022/03/18 03:59:39;;;;;;;11.10;6.15;;;2.60;99.90;;;;;;5105662;28;20450;-67
2022/03/18 04:02:05;;;;;;;12.27;6.03;;;2.60;99.90;;;;;;5092192;28;20082;-67
2022/03/18 04:04:32;;;;;;;11.25;5.82;;;2.50;99.90;;;;;;5104451;27;20083;-67
2022/03/18 04:06:58;;;;;;;9.98;5.97;;;2.50;99.90;;;;;;5085301;28;20135;-69
2022/03/18 04:09:23;;;;;;;12.75;6.60;;;2.50;99.90;;;;;;5089890;28;20150;-67
2022/03/18 04:11:49;;;;;;;16.08;6.57;;;2.50;99.90;;;;;;5093721;28;20075;-66
2022/03/18 04:14:14;;;;;;;10.23;5.70;;;2.50;99.90;;;;;;5099799;28;20417;-66
2022/03/18 04:16:40;;;;;;;11.38;5.90;;;2.50;99.90;;;;;;5103897;28;20043;-67
2022/03/18 04:19:06;;;;;;;13.15;5.85;;;2.50;99.90;;;;;;5100225;28;20044;-67
2022/03/18 04:21:31;;;;;;;11.73;5.78;;;2.50;99.90;;;;;;5107399;28;20107;-69
2022/03/18 04:23:57;;;;;;;12.57;5.72;;;2.40;99.90;;;;;;5100545;28;20039;-67
2022/03/18 04:26:22;;;;;;;10.77;5.68;;;2.50;99.90;;;;;;5106378;28;20417;-67
2022/03/18 04:28:48;;;;;;;12.82;5.90;;;2.40;99.90;;;;;;5095618;28;20044;-67
2022/03/18 04:31:14;;;;;;;11.95;6.45;;;2.40;99.90;;;;;;5106240;28;20055;-66
2022/03/18 04:33:39;;;;;;;10.45;5.93;;;2.40;99.90;;;;;;5093676;28;20035;-66
2022/03/18 04:36:05;;;;;;;11.93;5.68;;;2.40;99.90;;;;;;5103292;28;20042;-67
2022/03/18 04:38:30;;;;;;;10.88;6.00;;;2.40;99.90;;;;;;5105278;28;20129;-67
2022/03/18 04:40:56;;;;;;;13.13;6.18;;;2.40;99.90;;;;;;5099339;28;20035;-66
2022/03/18 04:43:22;;;;;;;12.68;5.65;;;2.40;99.90;;;;;;5100448;27;20084;-67
2022/03/18 04:45:47;;;;;;;13.80;5.70;;;2.40;99.90;;;;;;5104943;28;20134;-67
2022/03/18 04:48:13;;;;;;;10.25;5.80;;;2.30;99.90;;;;;;5103484;28;20042;-67
2022/03/18 04:50:39;;;;;;;13.13;6.10;;;2.30;99.90;;;;;;5095243;28;20075;-67
2022/03/18 04:53:04;;;;;;;9.65;5.40;;;2.40;99.90;;;;;;5090543;28;20093;-69
2022/03/18 04:55:30;;;;;;;10.23;5.82;;;2.30;99.90;;;;;;5091829;27;20099;-67
2022/03/18 04:57:55;;;;;;;9.02;5.65;;;2.30;99.90;;;;;;5090430;28;20066;-69
2022/03/18 05:00:24;;;;;;;10.25;6.00;;;2.30;99.90;;;;;;5096566;28;20093;-69
2022/03/18 05:02:53;;;;;;;12.32;6.00;;;2.30;99.90;;;;;;5094778;28;20517;-68
2022/03/18 05:05:20;;;;;;;9.93;5.18;;;2.20;99.90;;;;;;5087813;28;20047;-66
2022/03/18 05:07:51;;;;;;;11.35;5.30;;;2.20;99.90;;;;;;5089685;28;20058;-68
2022/03/18 05:10:18;;;;;;;12.80;5.63;;;2.20;99.90;;;;;;5091838;28;20043;-67
2022/03/18 05:12:45;;;;;;;13.68;6.20;;;2.20;99.90;;;;;;5090254;28;20491;-69
2022/03/18 05:15:11;;;;;;;13.32;6.20;;;2.20;99.90;;;;;;5093785;28;20044;-67
2022/03/18 05:17:40;;;;;;;14.00;5.60;;;2.20;99.90;;;;;;5096908;28;20043;-66
2022/03/18 05:20:09;;;;;;;13.00;5.93;;;2.30;99.90;;;;;;5094200;28;20048;-66
2022/03/18 05:22:35;;;;;;;14.27;6.10;;;2.30;99.90;;;;;;5094221;28;20084;-67
2022/03/18 05:25:01;;;;;;;11.82;6.32;;;2.20;99.90;;;;;;5092513;28;20111;-69
2022/03/18 05:27:26;;;;;;;11.15;6.47;;;2.30;99.90;;;;;;5092040;28;20617;-67
2022/03/18 05:29:52;;;;;;;12.43;6.68;;;2.20;99.90;;;;;;5092482;28;20094;-67
2022/03/18 05:32:19;;;;;;;12.63;6.18;;;2.20;99.90;;;;;;5092494;28;20032;-67
2022/03/18 05:34:45;;;;;;;11.23;5.82;;;2.20;99.90;;;;;;5092364;28;20652;-67
2022/03/18 05:37:11;;;;;;;12.00;5.85;;;2.20;99.90;;;;;;5084981;28;20123;-67
2022/03/18 05:39:36;;;;;;;9.98;5.95;;;2.20;99.90;;;;;;5103559;27;20047;-67
2022/03/18 05:42:04;;;;;;;10.18;6.28;;;2.20;99.90;;;;;;5094985;28;20075;-69
2022/03/18 05:44:30;;;;;;;13.25;6.57;;;2.20;99.90;;;;;;5092438;28;20485;-67
2022/03/18 05:46:56;;;;;;;12.30;6.13;;;2.20;99.90;;;;;;5103675;28;20576;-67
2022/03/18 05:49:21;;;;;;;10.52;6.35;;;2.20;99.90;;;;;;5105658;28;20051;-67
2022/03/18 05:51:47;;;;;;;11.50;5.90;;;2.20;99.90;;;;;;5094912;28;20402;-66
2022/03/18 05:54:12;;;;;;;10.65;6.32;;;2.20;99.90;;;;;;5098830;28;20519;-66
2022/03/18 05:56:54;;;;;;;11.02;6.22;;;2.20;99.90;;;;;;5096629;28;20082;-67
2022/03/18 05:59:27;;;;;;;11.23;6.05;;;2.30;99.90;;;;;;5095522;28;20027;-67
2022/03/18 06:01:54;;;;;;;11.70;6.13;;;2.20;99.90;;;;;;5102627;28;20480;-68
2022/03/18 06:04:20;;;;;;;13.68;6.72;;;2.20;99.90;;;;;;5095068;28;20059;-69
2022/03/18 06:06:47;;;;;;;15.38;6.72;;;2.30;99.90;;;;;;5096955;28;20437;-69
2022/03/18 06:12:01;;;;;;;11.65;5.75;;;2.30;99.90;;;;;;5096002;28;20048;-68
2022/03/18 06:14:28;;;;;;;10.90;6.00;;;2.20;99.90;;;;;;5102453;28;20038;-68
2022/03/18 06:17:02;;;;;;;11.90;6.28;;;2.30;99.90;;;;;;5101243;28;20528;-68
2022/03/18 06:19:29;;;;;;;11.27;6.30;;;2.30;99.90;;;;;;5094496;28;20036;-68
2022/03/18 06:21:56;;;;;;;14.00;6.40;;;2.30;99.90;;;;;;5091976;28;20549;-67
2022/03/18 06:24:22;;;;;;;9.45;5.72;;;2.30;99.90;;;;;;5096720;28;20036;-67
2022/03/18 06:26:52;;;;;;;11.00;5.82;;;2.30;99.90;;;;;;5094642;28;20036;-67
2022/03/18 06:29:19;;;;;;;10.25;6.10;;;2.30;99.90;;;;;;5096702;28;20044;-67
2022/03/18 06:31:44;;;;;;;10.70;6.68;;;2.40;99.90;;;;;;5073891;28;20123;-69
2022/03/18 06:34:11;;;;;;;12.43;6.97;;;2.40;99.90;;;;;;5093176;28;20426;-67
2022/03/18 06:36:38;;;;;;;10.70;6.80;;;2.40;99.90;;;;;;5096638;28;20040;-66
2022/03/18 06:39:04;;;;;;;14.40;7.28;;;2.50;99.90;;;;;;5098645;28;20038;-68
2022/03/18 06:41:30;;;;;;;12.00;6.20;;;2.50;99.90;;;;;;5095196;28;20388;-68
2022/03/18 06:43:57;;;;;;;13.65;7.60;;;2.60;99.90;;;;;;5101793;28;20045;-67
2022/03/18 06:46:22;;;;;;;14.50;7.47;;;2.60;99.90;;;;;;5095393;28;20064;-68
2022/03/18 06:48:48;;;;;;;15.30;7.07;;;2.70;99.90;;;;;;5096508;28;20051;-69
2022/03/18 06:51:14;;;;;;;11.82;7.07;;;2.70;99.90;;;;;;5098677;28;20092;-68
2022/03/18 06:53:40;;;;;;;16.70;7.63;;;2.70;99.90;;;;;;5106101;28;20141;-68
2022/03/18 06:56:06;;;;;;;13.43;7.43;;;2.80;99.90;;;;;;5105113;28;20418;-68
2022/03/18 06:58:33;;;;;;;15.13;8.18;;;2.80;99.90;;;;;;5094658;28;20092;-70
2022/03/18 07:00:59;;;;;;;16.65;8.13;;;2.90;99.90;;;;;;5093820;28;20441;-69
2022/03/18 07:03:24;;;;;;;16.77;9.35;;;2.90;99.90;;;;;;5105565;28;20122;-68
2022/03/18 07:05:50;;;;;;;17.65;9.90;;;3.00;99.90;;;;;;5109860;28;20039;-68
2022/03/18 07:08:16;;;;;;;16.75;8.60;;;3.10;99.90;;;;;;5109604;28;20088;-69
2022/03/18 07:10:42;;;;;;;14.77;7.95;;;3.10;99.90;;;;;;5065193;28;20139;-68
2022/03/18 07:13:08;;;;;;;17.98;10.18;;;3.20;99.90;;;;;;5096899;28;20032;-68
2022/03/18 07:15:33;;;;;;;20.70;11.25;;;3.20;99.90;;;;;;5106661;28;20457;-67
2022/03/18 07:17:59;;;;;;;17.02;10.48;;;3.30;99.90;;;;;;5109150;28;20043;-67
2022/03/18 07:20:30;;;;;;;22.20;10.82;;;3.30;99.90;;;;;;5108844;28;20071;-67
2022/03/18 07:23:05;;;;;;;21.67;11.68;;;3.40;99.90;;;;;;5108456;27;20085;-67
2022/03/18 07:25:31;;;;;;;21.20;11.32;;;3.50;99.90;;;;;;5099987;28;20477;-68
2022/03/18 07:27:57;;;;;;;17.52;10.40;;;3.50;99.90;;;;;;5056944;28;20054;-68
2022/03/18 07:30:23;;;;;;;17.15;9.57;;;3.50;99.90;;;;;;5096985;28;20866;-69
2022/03/18 07:32:49;;;;;;;20.27;10.93;;;3.60;99.90;;;;;;5099380;28;20063;-70
2022/03/18 07:35:14;;;;;;;21.52;11.98;;;3.70;99.90;;;;;;5096332;27;20044;-69
2022/03/18 07:37:41;;;;;;;19.95;12.45;;;3.80;99.90;;;;;;5109828;28;20117;-69
2022/03/18 07:40:11;;;;;;;24.67;13.00;;;3.80;99.90;;;;;;5110013;28;20038;-68
2022/03/18 07:42:56;;;;;;;20.60;12.25;;;3.90;99.90;;;;;;5109548;28;20040;-69
2022/03/18 07:45:31;;;;;;;23.58;13.82;;;4.00;99.90;;;;;;5096453;27;20568;-70
2022/03/18 07:48:03;;;;;;;26.55;13.57;;;4.00;99.90;;;;;;5096090;28;20075;-68
2022/03/18 07:50:31;;;;;;;22.27;13.95;;;4.10;99.90;;;;;;5098502;28;20032;-70
2022/03/18 07:53:02;;;;;;;26.08;13.93;;;4.20;99.90;;;;;;5093831;28;20051;-68
2022/03/18 07:55:29;;;;;;;23.98;14.68;;;4.30;99.90;;;;;;5103596;27;20067;-68
2022/03/18 07:57:55;;;;;;;26.60;15.25;;;4.40;99.90;;;;;;5106833;28;20061;-68
2022/03/18 08:00:22;;;;;;;26.40;15.60;;;4.50;99.90;;;;;;5101760;28;20084;-68
2022/03/18 08:02:49;;;;;;;25.05;16.05;;;4.60;99.90;;;;;;5108710;28;20040;-68
2022/03/18 08:05:15;;;;;;;26.42;16.77;;;4.70;99.90;;;;;;5107908;27;20074;-67
2022/03/18 08:07:42;;;;;;;28.05;17.48;;;4.80;99.90;;;;;;5096817;27;20103;-70
2022/03/18 08:10:09;;;;;;;27.30;17.77;;;4.90;99.90;;;;;;5100625;28;20051;-70
2022/03/18 08:12:37;;;;;;;29.17;19.00;;;4.90;99.90;;;;;;5103598;28;20092;-68
2022/03/18 08:15:21;;;;;;;28.00;18.35;;;5.10;99.90;;;;;;5105024;28;20034;-68
2022/03/18 08:17:51;;;;;;;32.13;19.08;;;5.20;99.90;;;;;;5101439;28;20126;-69
2022/03/18 08:20:18;;;;;;;31.90;17.80;;;5.30;99.90;;;;;;5083510;28;20101;-69
2022/03/18 08:22:44;;;;;;;34.90;19.77;;;5.40;99.90;;;;;;5109091;28;20339;-68
2022/03/18 08:25:10;;;;;;;32.72;19.02;;;5.50;99.90;;;;;;5085562;28;20039;-67
2022/03/18 08:27:36;;;;;;;33.42;19.50;;;5.70;99.90;;;;;;5106723;28;20437;-69
2022/03/18 08:30:05;;;;;;;32.85;19.65;;;5.70;99.90;;;;;;5097240;28;20044;-67
2022/03/18 08:32:30;;;;;;;32.28;19.42;;;5.90;99.90;;;;;;5107667;28;20042;-66
2022/03/18 08:34:58;;;;;;;35.00;19.02;;;6.10;99.90;;;;;;5104129;27;20039;-67
2022/03/18 08:40:11;;;;;;;32.35;16.33;;;6.40;99.90;;;;;;5059649;28;20202;-70
2022/03/18 08:42:37;;;;;;;29.88;15.82;;;6.50;99.90;;;;;;5070028;28;20071;-67
2022/03/18 08:45:06;;;;;;;27.75;16.40;;;6.80;99.90;;;;;;5051307;27;20062;-67
2022/03/18 08:47:32;;;;;;;32.35;18.15;;;6.90;99.90;;;;;;5070907;27;20075;-70
2022/03/18 08:49:58;;;;;;;32.10;18.15;;;7.00;99.90;;;;;;5068707;28;20047;-68
2022/03/18 08:52:23;;;;;;;31.83;18.65;;;7.10;99.90;;;;;;5070951;28;20490;-68
2022/03/18 08:54:49;;;;;;;32.65;18.45;;;7.20;99.90;;;;;;5072221;28;20048;-71
2022/03/18 08:57:15;;;;;;;34.63;17.98;;;7.40;99.90;;;;;;5070273;28;20061;-68
2022/03/18 08:59:40;;;;;;;32.17;18.92;;;7.50;99.90;;;;;;5066816;28;20160;-69
2022/03/18 09:02:06;;;;;;;29.73;19.02;;;7.60;99.90;;;;;;5067159;27;20047;-70
2022/03/18 09:04:31;;;;;;;32.72;18.48;;;7.70;99.90;;;;;;5069084;28;20168;-69
2022/03/18 09:06:57;;;;;;;33.08;18.45;;;7.80;99.90;;;;;;5051971;28;20124;-71
2022/03/18 09:09:23;;;;;;;34.15;18.45;;;7.90;99.90;;;;;;5051058;28;20078;-70
2022/03/18 09:11:48;;;;;;;33.38;18.30;;;8.00;99.90;;;;;;5069915;28;20047;-68
2022/03/18 09:14:14;;;;;;;32.10;17.70;;;8.10;99.90;;;;;;5067979;28;20797;-69
2022/03/18 09:16:39;;;;;;;33.00;17.83;;;8.20;99.90;;;;;;5071062;28;20573;-70
2022/03/18 09:19:06;;;;;;;31.45;17.58;;;8.30;99.90;;;;;;5067504;28;20043;-70
2022/03/18 09:21:32;;;;;;;26.42;16.10;;;8.40;99.90;;;;;;5069608;28;20044;-69
2022/03/18 09:23:58;;;;;;;24.42;14.43;;;8.50;99.90;;;;;;5066095;28;20043;-69
2022/03/18 09:26:24;;;;;;;23.77;14.60;;;8.60;99.90;;;;;;5068385;28;20132;-68
2022/03/18 09:28:50;;;;;;;26.58;15.23;;;8.70;99.90;;;;;;5066185;28;20540;-70
2022/03/18 09:31:16;;;;;;;26.02;14.73;;;8.90;99.90;;;;;;5066502;28;20051;-68
2022/03/18 09:33:42;;;;;;;27.42;16.02;;;8.90;99.90;;;;;;5065297;28;20059;-70
2022/03/18 09:36:10;;;;;;;28.58;15.35;;;9.00;99.90;;;;;;5066631;28;20367;-70
2022/03/18 09:38:36;;;;;;;26.70;15.57;;;9.10;99.90;;;;;;5069198;28;20095;-71
2022/03/18 09:41:02;;;;;;;26.90;13.95;;;9.30;99.90;;;;;;5069340;28;20055;-71
2022/03/18 09:43:39;;;;;;;23.13;13.30;;;9.40;99.90;;;;;;5070218;28;20043;-69
2022/03/18 09:46:06;;;;;;;20.45;12.80;;;9.50;99.90;;;;;;5066789;28;20055;-71
2022/03/18 09:48:33;;;;;;;23.23;12.30;;;9.50;99.90;;;;;;5068380;28;20653;-68
2022/03/18 09:50:58;;;;;;;20.35;11.95;;;9.60;99.90;;;;;;5068398;28;20163;-68
2022/03/18 09:53:24;;;;;;;22.05;12.35;;;9.70;99.90;;;;;;5071030;28;20207;-70
2022/03/18 09:55:51;;;;;;;24.38;12.10;;;9.80;99.90;;;;;;5069364;28;20043;-70
2022/03/18 09:58:18;;;;;;;19.67;11.73;;;9.80;99.90;;;;;;5066883;28;20110;-70
2022/03/18 10:00:45;;;;;;;19.08;11.35;;;9.90;99.90;;;;;;5064974;28;20104;-70
2022/03/18 10:03:12;;;;;;;21.95;11.57;;;10.00;99.90;;;;;;5068349;28;20048;-70
2022/03/18 10:05:52;;;;;;;22.58;11.63;;;10.10;99.90;;;;;;5070224;28;20714;-68
2022/03/18 10:08:21;;;;;;;19.60;10.85;;;10.20;99.90;;;;;;5067465;28;20446;-69
2022/03/18 10:10:47;;;;;;;20.35;11.35;;;10.20;99.90;;;;;;5067468;28;20092;-70
2022/03/18 10:13:15;;;;;;;18.08;10.95;;;10.30;99.90;;;;;;5067913;28;20617;-70
2022/03/18 10:15:41;;;;;;;17.92;11.00;;;10.30;99.90;;;;;;5067398;28;20054;-67
2022/03/18 10:18:11;;;;;;;18.33;11.52;;;10.40;99.90;;;;;;5069796;28;20051;-68
2022/03/18 10:20:41;;;;;;;18.83;11.32;;;10.50;99.90;;;;;;5046807;28;20397;-69
2022/03/18 10:23:16;;;;;;;19.25;10.90;;;10.60;99.90;;;;;;5052381;28;20052;-69
2022/03/18 10:25:53;;;;;;;19.52;10.48;;;10.60;99.90;;;;;;5069867;28;20131;-67
2022/03/18 10:28:44;;;;;;;16.38;10.27;;;10.70;99.90;;;;;;5064736;28;20354;-69
2022/03/18 10:31:14;;;;;;;17.17;10.93;;;10.80;99.90;;;;;;5071329;28;20058;-70
2022/03/18 10:37:05;;;;;;;19.40;10.43;;;10.90;99.90;;;;;;5078940;28;20056;-69
2022/03/18 10:39:42;;;;;;;17.88;10.52;;;11.00;99.90;;;;;;5062512;28;20120;-71
2022/03/18 10:42:09;;;;;;;16.67;10.40;;;11.10;99.90;;;;;;5078945;28;20446;-70
2022/03/18 10:44:55;;;;;;;18.30;10.15;;;11.10;99.90;;;;;;5081857;28;20043;-68
2022/03/18 10:47:40;;;;;;;19.45;9.82;;;11.20;99.90;;;;;;5081129;28;20139;-70
2022/03/18 10:50:26;;;;;;;14.07;9.45;;;11.30;99.90;;;;;;5081813;28;20351;-72
2022/03/18 10:52:58;;;;;;;19.30;10.50;;;11.30;99.90;;;;;;5078998;28;20055;-71
2022/03/18 10:55:33;;;;;;;19.08;10.63;;;11.40;99.90;;;;;;5064647;28;20623;-68
2022/03/18 10:58:01;;;;;;;16.38;9.98;;;11.40;99.90;;;;;;5080638;28;20057;-70
2022/03/18 11:00:30;;;;;;;18.63;10.43;;;11.50;99.90;;;;;;5080751;28;20111;-70
2022/03/18 11:02:58;;;;;;;20.23;10.80;;;11.60;99.90;;;;;;5079711;28;20046;-71
2022/03/18 11:05:30;;;;;;;16.20;9.93;;;11.60;99.90;;;;;;5080748;28;20134;-69
2022/03/18 11:07:56;;;;;;;20.10;10.10;;;11.70;99.90;;;;;;5079334;28;20043;-68
2022/03/18 11:13:09;;;;;;;16.00;8.90;;;11.90;99.90;;;;;;5076668;27;20335;-71
2022/03/18 11:15:39;;;;;;;15.13;8.35;;;11.90;99.90;;;;;;5063889;28;20052;-68
2022/03/18 11:18:07;;;;;;;13.80;7.30;;;11.90;99.90;;;;;;5081398;28;20062;-68
2022/03/18 11:20:33;;;;;;;15.85;9.52;;;12.00;99.90;;;;;;5076651;28;20040;-68
2022/03/18 11:23:00;;;;;;;16.00;9.55;;;12.00;99.90;;;;;;5079112;27;20044;-68
2022/03/18 11:25:27;;;;;;;17.00;9.88;;;12.10;99.90;;;;;;5077341;28;20558;-70
2022/03/18 11:27:55;;;;;;;14.60;9.13;;;12.20;99.90;;;;;;5075906;28;21149;-70
2022/03/18 11:30:23;;;;;;;15.85;8.90;;;12.20;99.90;;;;;;5079144;28;20097;-71
2022/03/18 11:33:11;;;;;;;16.13;10.18;;;12.30;99.90;;;;;;5078517;27;20051;-68
2022/03/18 11:35:52;;;;;;;20.60;9.57;;;12.30;99.90;;;;;;5079865;28;20040;-71
2022/03/18 11:38:23;;;;;;;14.55;8.40;;;12.40;99.90;;;;;;5060359;27;20116;-69
2022/03/18 11:41:05;;;;;;;14.90;8.35;;;12.50;99.90;;;;;;5081358;28;20046;-69
2022/03/18 11:43:34;;;;;;;19.27;9.60;;;12.60;99.90;;;;;;5080330;28;20694;-70
2022/03/18 11:46:12;;;;;;;13.77;8.80;;;12.70;99.90;;;;;;5076566;28;20050;-71
2022/03/18 11:48:41;;;;;;;19.25;9.23;;;12.80;99.90;;;;;;5083430;27;20043;-69
2022/03/18 11:51:25;;;;;;;15.93;9.05;;;12.90;99.90;;;;;;5075883;28;20142;-70
2022/03/18 11:53:56;;;;;;;14.30;8.57;;;13.00;99.90;;;;;;5078576;28;20679;-70
2022/03/18 11:56:44;;;;;;;14.57;8.63;;;13.10;99.90;;;;;;5081867;28;20092;-70
2022/03/18 11:59:24;;;;;;;16.08;8.82;;;13.00;99.90;;;;;;5076616;28;20532;-71
2022/03/18 12:02:13;;;;;;;17.67;9.32;;;13.10;99.90;;;;;;5059923;28;20155;-69
2022/03/18 12:04:46;;;;;;;14.50;8.23;;;13.10;99.90;;;;;;5078429;28;20120;-70
2022/03/18 12:07:16;;;;;;;13.90;8.02;;;13.20;99.90;;;;;;5080969;28;20079;-70
2022/03/18 12:09:59;;;;;;;14.13;7.80;;;13.20;99.90;;;;;;5044461;28;20047;-71
2022/03/18 12:12:34;;;;;;;9.02;4.57;;;13.30;99.90;;;;;;5075440;28;20047;-72
2022/03/18 12:15:03;;;;;;;11.48;4.78;;;13.30;99.90;;;;;;5080699;28;20075;-71
2022/03/18 12:17:30;;;;;;;9.65;4.38;;;13.40;99.90;;;;;;5076588;28;20055;-71
2022/03/18 12:19:59;;;;;;;10.30;5.15;;;13.60;99.90;;;;;;5079595;28;20136;-71
2022/03/18 12:22:28;;;;;;;12.32;6.03;;;13.70;99.20;;;;;;5064647;28;20196;-69
2022/03/18 12:24:56;;;;;;;11.43;5.72;;;13.70;99.00;;;;;;5099133;27;20135;-69
2022/03/18 12:27:38;;;;;;;10.18;4.88;;;13.70;98.40;;;;;;5102038;28;20320;-72
2022/03/18 12:30:07;;;;;;;9.60;4.43;;;13.80;95.90;;;;;;5084794;28;20046;-72
2022/03/18 12:32:54;;;;;;;11.18;4.53;;;13.90;95.30;;;;;;5097904;28;20130;-70
2022/03/18 12:35:31;;;;;;;11.35;4.47;;;14.00;92.00;;;;;;5084301;28;20043;-69
2022/03/18 12:38:08;;;;;;;12.98;4.78;;;14.10;94.60;;;;;;5090271;28;20397;-69
2022/03/18 12:40:40;;;;;;;10.90;4.68;;;14.20;94.10;;;;;;5105049;28;20519;-69
2022/03/18 12:43:07;;;;;;;11.35;4.05;;;14.20;94.00;;;;;;5108884;28;20122;-69
2022/03/18 12:45:38;;;;;;;10.05;4.35;;;14.10;92.40;;;;;;5088100;28;20404;-71
2022/03/18 12:48:09;;;;;;;12.50;5.85;;;14.10;92.40;;;;;;5102471;28;20059;-67
2022/03/18 12:50:42;;;;;;;11.50;4.65;;;14.10;92.80;;;;;;5086881;28;20058;-68
2022/03/18 12:53:15;;;;;;;11.45;4.40;;;14.20;92.20;;;;;;5097810;27;20043;-67
2022/03/18 12:55:43;;;;;;;9.95;4.95;;;14.30;89.70;;;;;;5102263;27;20375;-68
2022/03/18 12:58:10;;;;;;;10.48;5.07;;;14.50;90.40;;;;;;5085213;28;20384;-67
2022/03/18 13:00:46;;;;;;;8.75;4.88;;;14.50;90.10;;;;;;5109791;28;20059;-70
2022/03/18 13:03:17;;;;;;;12.43;5.07;;;14.70;89.60;;;;;;5106334;28;20036;-67
2022/03/18 13:05:44;;;;;;;9.82;4.22;;;14.90;87.50;;;;;;5109114;28;20071;-69
2022/03/18 13:08:11;;;;;;;11.38;3.70;;;14.90;84.90;;;;;;5108292;28;20040;-69